Decatur, Texas
Current Conditions -  °F | °C
As of 6:15 PM on Wednesday 22 Oct 2014 (Local Time) from KLUD Reporting Station
Clear Clear  
Wind Chill: 75°   Ceiling: Unl
Heat Index: 75°   Visibility: 10mi
Dew Point: 56°   Wind: 6mph
Humidity: 52%   Direction: 120°ESE
Pressure: 30.09"   Gusts: NA
Location:  33.23°N, 97.59°W
Report Text: KLUD 222315Z AUTO 12005KT 10SM CLR 24/14 A3009 RMK AO2 T02380135
Loading
Personal Weather Stations






























Interactive Weather Map New forecast layout! Learn more

10-Day Weather Forecast

Advertisements
Track Severe Weather on mobile